createdAt,value
2023-05-17T00:02:19.678Z,1.92
2023-05-17T00:04:46.557Z,2.67
2023-05-17T00:07:13.371Z,4.68
2023-05-17T00:09:40.174Z,1.63
2023-05-17T00:12:07.058Z,1.50
2023-05-17T00:14:36.585Z,2.75
2023-05-17T00:17:03.398Z,1.48
2023-05-17T00:19:30.183Z,2.08
2023-05-17T00:21:57.109Z,2.30
2023-05-17T00:24:25.632Z,2.50
2023-05-17T00:26:52.487Z,2.25
2023-05-17T00:29:19.227Z,1.23
2023-05-17T00:31:46.003Z,2.08
2023-05-17T00:34:12.769Z,2.50
2023-05-17T00:36:39.642Z,2.45
2023-05-17T00:39:06.383Z,1.15
2023-05-17T00:41:33.162Z,2.08
2023-05-17T00:44:00.145Z,1.20
2023-05-17T00:46:27.113Z,1.02
2023-05-17T00:48:54.621Z,2.13
2023-05-17T00:51:21.677Z,3.08
2023-05-17T00:53:48.799Z,2.22
2023-05-17T00:56:16.089Z,2.28
2023-05-17T00:58:43.246Z,1.80
2023-05-17T01:01:10.082Z,1.90
2023-05-17T01:03:37.144Z,0.50
2023-05-17T01:06:06.313Z,2.10
2023-05-17T01:08:35.471Z,0.95
2023-05-17T01:11:02.223Z,0.80
2023-05-17T01:13:45.202Z,1.02
2023-05-17T01:16:18.036Z,0.65
2023-05-17T01:18:56.600Z,1.05
2023-05-17T01:21:52.695Z,1.42
2023-05-17T01:24:47.542Z,2.70
2023-05-17T01:27:16.124Z,3.33
2023-05-17T01:29:44.697Z,3.20
2023-05-17T01:32:13.338Z,1.15
2023-05-17T01:34:41.686Z,1.52
2023-05-17T01:37:08.596Z,1.77
2023-05-17T01:39:36.460Z,0.57
2023-05-17T01:42:29.477Z,1.52
2023-05-17T01:45:15.324Z,1.00
2023-05-17T01:47:51.071Z,2.17
2023-05-17T01:50:23.080Z,2.20
2023-05-17T01:53:02.243Z,0.90
2023-05-17T01:55:38.071Z,1.60
2023-05-17T01:58:07.988Z,2.05
2023-05-17T02:00:36.378Z,1.70
2023-05-17T02:03:03.297Z,1.27
2023-05-17T02:05:30.368Z,1.35
2023-05-17T02:07:57.321Z,0.73
2023-05-17T02:10:24.211Z,1.08
2023-05-17T02:12:51.000Z,3.08
2023-05-17T02:15:17.784Z,2.25
2023-05-17T02:17:44.794Z,0.60
2023-05-17T02:20:12.038Z,0.47
2023-05-17T02:22:39.139Z,0.47
2023-05-17T02:25:07.176Z,0.52
2023-05-17T02:27:34.037Z,0.40
2023-05-17T02:30:02.199Z,1.17
2023-05-17T02:32:29.195Z,0.82
2023-05-17T02:34:56.467Z,0.43
2023-05-17T02:37:23.477Z,1.58
2023-05-17T02:39:50.309Z,0.55
2023-05-17T02:42:17.293Z,3.25
2023-05-17T02:44:47.127Z,1.85
2023-05-17T02:47:15.059Z,0.63
2023-05-17T02:49:41.909Z,2.47
2023-05-17T02:52:08.724Z,1.30
2023-05-17T02:54:35.920Z,0.52
2023-05-17T02:57:03.456Z,0.57
2023-05-17T02:59:30.338Z,0.75
2023-05-17T03:01:57.614Z,1.00
2023-05-17T03:04:24.482Z,1.08
2023-05-17T03:06:51.262Z,3.55
2023-05-17T03:09:19.030Z,0.95
2023-05-17T03:11:48.603Z,0.68
2023-05-17T03:14:21.011Z,1.35
2023-05-17T03:16:48.986Z,1.13
2023-05-17T03:19:15.954Z,0.85
2023-05-17T03:21:44.374Z,1.25
2023-05-17T03:24:12.295Z,2.75
2023-05-17T03:26:40.043Z,1.20
2023-05-17T03:29:09.219Z,0.93
2023-05-17T03:31:36.462Z,0.90
2023-05-17T03:34:03.543Z,1.33
2023-05-17T03:36:31.530Z,1.50
2023-05-17T03:38:58.435Z,0.63
2023-05-17T03:41:25.401Z,1.85
2023-05-17T03:43:52.559Z,1.48
2023-05-17T03:46:21.101Z,2.17
2023-05-17T03:48:48.886Z,1.88
2023-05-17T03:51:16.973Z,0.52
2023-05-17T03:53:44.394Z,1.77
2023-05-17T03:56:11.288Z,2.28
2023-05-17T03:58:38.505Z,2.35
2023-05-17T04:01:05.845Z,0.60
2023-05-17T04:03:33.441Z,0.90
2023-05-17T04:06:07.176Z,2.45
2023-05-17T04:08:35.801Z,2.88
2023-05-17T04:11:10.542Z,1.02
2023-05-17T04:13:37.981Z,0.75
2023-05-17T04:16:05.506Z,0.77
2023-05-17T04:18:35.706Z,4.13
2023-05-17T04:21:03.405Z,1.05
2023-05-17T04:23:30.964Z,1.23
2023-05-17T04:25:58.933Z,1.00
2023-05-17T04:28:27.503Z,0.75
2023-05-17T04:30:55.933Z,1.05
2023-05-17T04:33:23.376Z,4.40
2023-05-17T04:35:51.162Z,0.60
2023-05-17T04:38:18.743Z,2.17
2023-05-17T04:40:45.691Z,1.92
2023-05-17T04:43:12.657Z,1.23
2023-05-17T04:45:41.595Z,0.57
2023-05-17T04:48:08.640Z,2.17
2023-05-17T04:50:35.747Z,0.88
2023-05-17T04:53:02.511Z,1.60
2023-05-17T04:55:32.949Z,2.35
2023-05-17T04:57:59.971Z,1.27
2023-05-17T05:00:26.856Z,1.80
2023-05-17T05:03:00.341Z,2.10
2023-05-17T05:05:27.623Z,1.88
2023-05-17T05:07:54.677Z,1.30
2023-05-17T05:10:21.937Z,3.15
2023-05-17T05:12:48.801Z,1.60
2023-05-17T05:15:16.467Z,1.35
2023-05-17T05:17:50.872Z,1.67
2023-05-17T05:20:18.498Z,1.83
2023-05-17T05:22:45.395Z,4.15
2023-05-17T05:25:13.855Z,5.57
2023-05-17T05:27:40.815Z,4.90
2023-05-17T05:30:08.800Z,2.53
2023-05-17T05:32:38.150Z,2.78
2023-05-17T05:35:05.907Z,3.33
2023-05-17T05:37:32.786Z,1.90
2023-05-17T05:40:00.025Z,4.40
2023-05-17T05:42:27.735Z,5.97
2023-05-17T05:44:54.509Z,2.75
2023-05-17T05:47:22.961Z,2.15
2023-05-17T05:49:49.808Z,2.88
2023-05-17T05:52:16.817Z,9.35
2023-05-17T05:54:45.140Z,2.60
2023-05-17T05:57:11.895Z,1.98
2023-05-17T05:59:39.593Z,2.05
2023-05-17T06:02:07.819Z,1.27
2023-05-17T06:04:44.671Z,1.98
2023-05-17T06:07:13.100Z,2.20
2023-05-17T06:09:39.948Z,1.73
2023-05-17T06:12:06.896Z,0.88
2023-05-17T06:14:33.729Z,1.10
2023-05-17T06:17:00.527Z,1.30
2023-05-17T06:19:27.332Z,2.08
2023-05-17T06:21:54.308Z,3.33
2023-05-17T06:24:21.105Z,3.25
2023-05-17T06:26:48.563Z,3.30
2023-05-17T06:29:15.446Z,2.70
2023-05-17T06:31:42.313Z,2.65
2023-05-17T06:34:09.268Z,2.30
2023-05-17T06:36:37.628Z,3.35
2023-05-17T06:39:05.713Z,3.45
2023-05-17T06:41:32.581Z,3.25
2023-05-17T06:43:59.413Z,2.80
2023-05-17T06:46:26.328Z,3.33
2023-05-17T06:48:53.171Z,1.85
2023-05-17T06:51:20.174Z,1.92
2023-05-17T06:53:46.893Z,3.50
2023-05-17T06:56:14.651Z,3.15
2023-05-17T06:58:41.576Z,3.65
2023-05-17T07:01:08.461Z,1.95
2023-05-17T07:03:35.939Z,2.17
2023-05-17T07:06:03.414Z,1.75
2023-05-17T07:08:30.354Z,5.43
2023-05-17T07:10:57.144Z,2.95
2023-05-17T07:13:23.910Z,3.25
2023-05-17T07:15:50.738Z,2.22
2023-05-17T07:18:17.914Z,1.55
2023-05-17T07:20:44.845Z,2.33
2023-05-17T07:23:11.571Z,3.33
2023-05-17T07:25:43.327Z,2.55
2023-05-17T07:28:10.123Z,2.25
2023-05-17T07:30:36.926Z,2.38
2023-05-17T07:33:03.784Z,3.42
2023-05-17T07:35:30.700Z,3.63
2023-05-17T07:37:57.674Z,2.05
2023-05-17T07:40:24.527Z,2.97
2023-05-17T07:42:51.625Z,1.90
2023-05-17T07:45:19.300Z,4.28
2023-05-17T07:47:46.408Z,1.90
2023-05-17T07:50:13.308Z,2.85
2023-05-17T07:52:40.084Z,2.55
2023-05-17T07:55:07.990Z,4.03
2023-05-17T07:57:34.924Z,2.25
2023-05-17T08:00:01.732Z,4.60
2023-05-17T08:02:38.953Z,2.97
2023-05-17T08:05:06.270Z,4.65
2023-05-17T08:07:33.099Z,7.25
2023-05-17T08:09:59.899Z,6.03
2023-05-17T08:12:26.768Z,5.22
2023-05-17T08:14:53.627Z,2.78
2023-05-17T08:17:20.383Z,3.78
2023-05-17T08:19:47.191Z,5.10
2023-05-17T08:22:13.986Z,2.45
2023-05-17T08:24:40.975Z,3.88
2023-05-17T08:27:07.815Z,3.63
2023-05-17T08:29:34.597Z,2.55
2023-05-17T08:32:01.337Z,3.33
2023-05-17T08:34:28.109Z,3.83
2023-05-17T08:36:55.219Z,2.22
2023-05-17T08:39:22.102Z,5.05
2023-05-17T08:41:48.882Z,1.80
2023-05-17T08:44:18.528Z,3.78
2023-05-17T08:46:53.945Z,2.38
2023-05-17T08:49:22.877Z,3.88
2023-05-17T08:51:51.094Z,4.32
2023-05-17T08:54:17.945Z,3.40
2023-05-17T08:56:45.437Z,4.95
2023-05-17T08:59:12.746Z,4.07
2023-05-17T09:01:42.122Z,2.75
2023-05-17T09:04:12.405Z,4.28
2023-05-17T09:06:39.342Z,4.10
2023-05-17T09:09:08.919Z,4.45
2023-05-17T09:11:35.814Z,6.63
2023-05-17T09:14:07.225Z,4.50
2023-05-17T09:16:36.274Z,3.58
2023-05-17T09:19:05.575Z,4.25
2023-05-17T09:21:32.866Z,6.03
2023-05-17T09:26:45.910Z,6.43
2023-05-17T09:29:16.901Z,4.38
2023-05-17T09:31:44.660Z,3.28
2023-05-17T09:34:11.938Z,2.97
2023-05-17T09:36:43.597Z,3.30
2023-05-17T09:39:13.183Z,2.75
2023-05-17T09:41:45.711Z,1.50
2023-05-17T09:44:14.195Z,3.10
2023-05-17T09:46:48.526Z,2.38
2023-05-17T09:49:17.469Z,3.72
2023-05-17T09:51:46.940Z,5.10
2023-05-17T09:54:14.283Z,3.63
2023-05-17T09:56:41.533Z,2.00
2023-05-17T09:59:13.945Z,2.70
2023-05-17T10:01:41.979Z,2.95
2023-05-17T10:04:10.701Z,2.10
2023-05-17T10:09:13.815Z,5.72
2023-05-17T10:11:44.031Z,2.03
2023-05-17T10:14:22.771Z,2.70
2023-05-17T10:16:51.893Z,5.15
2023-05-17T10:19:20.943Z,2.65
2023-05-17T10:21:50.227Z,4.05
2023-05-17T10:24:17.731Z,1.83
2023-05-17T10:26:45.088Z,3.30
2023-05-17T10:29:11.944Z,2.75
2023-05-17T10:31:43.536Z,2.70
2023-05-17T10:34:12.054Z,1.95
2023-05-17T10:36:40.642Z,2.95
2023-05-17T10:39:10.923Z,2.42
2023-05-17T10:41:43.402Z,2.03
2023-05-17T10:44:14.013Z,1.75
2023-05-17T10:46:41.065Z,1.98
2023-05-17T10:49:10.499Z,3.70
2023-05-17T10:51:37.926Z,1.98
2023-05-17T10:54:18.768Z,2.33
2023-05-17T10:56:53.457Z,2.33
2023-05-17T10:59:28.087Z,2.28
2023-05-17T11:02:10.521Z,3.67
2023-05-17T11:04:45.058Z,1.77
2023-05-17T11:07:19.166Z,1.10
2023-05-17T11:09:49.419Z,1.70
2023-05-17T11:12:17.393Z,1.38
2023-05-17T11:14:47.016Z,2.00
2023-05-17T11:17:20.747Z,1.80
2023-05-17T11:20:16.905Z,2.33
2023-05-17T11:22:59.197Z,1.45
2023-05-17T11:25:36.907Z,0.70
2023-05-17T11:28:18.940Z,1.38
2023-05-17T11:30:52.071Z,3.15
2023-05-17T11:33:33.114Z,2.25
2023-05-17T11:36:05.609Z,1.35
2023-05-17T11:38:33.150Z,2.95
2023-05-17T11:41:26.586Z,2.70
2023-05-17T11:43:55.473Z,4.35
2023-05-17T11:46:24.274Z,1.50
2023-05-17T11:48:52.828Z,3.70
2023-05-17T11:51:22.891Z,1.80
2023-05-17T11:53:55.577Z,1.48
2023-05-17T11:56:32.120Z,1.05
2023-05-17T11:59:10.274Z,3.40
2023-05-17T12:01:48.916Z,3.42
2023-05-17T12:04:26.731Z,0.88
2023-05-17T12:06:55.554Z,1.48
2023-05-17T12:09:22.656Z,1.08
2023-05-17T12:11:49.628Z,0.30
2023-05-17T12:14:20.539Z,0.98
2023-05-17T12:16:53.074Z,0.68
2023-05-17T12:19:22.571Z,0.38
2023-05-17T12:21:49.942Z,0.47
2023-05-17T12:24:17.406Z,0.38
2023-05-17T12:26:46.528Z,0.65
2023-05-17T12:29:14.934Z,0.43
2023-05-17T12:31:49.835Z,0.43
2023-05-17T12:34:18.277Z,4.32
2023-05-17T12:36:45.873Z,1.77
2023-05-17T12:39:14.655Z,2.75
2023-05-17T12:41:43.558Z,3.22
2023-05-17T12:44:15.375Z,1.67
2023-05-17T12:46:43.735Z,0.85
2023-05-17T12:49:12.381Z,0.73
2023-05-17T12:51:44.398Z,3.63
2023-05-17T12:54:29.951Z,0.50
2023-05-17T12:56:57.489Z,0.20
2023-05-17T12:59:29.395Z,0.90
2023-05-17T13:01:57.923Z,0.85
2023-05-17T13:04:33.423Z,0.30
2023-05-17T13:07:02.916Z,0.45
2023-05-17T13:09:31.156Z,0.70
2023-05-17T13:12:02.683Z,0.40
2023-05-17T13:15:07.250Z,2.38
2023-05-17T13:17:35.948Z,0.95
2023-05-17T13:20:04.814Z,0.50
2023-05-17T13:22:32.797Z,0.73
2023-05-17T13:24:59.683Z,1.45
2023-05-17T13:27:26.492Z,0.10
2023-05-17T13:29:53.508Z,0.80
2023-05-17T13:32:21.695Z,0.57
2023-05-17T13:34:48.607Z,0.80
2023-05-17T13:37:15.592Z,0.60
2023-05-17T13:39:42.392Z,1.65
2023-05-17T13:42:10.918Z,1.00
2023-05-17T13:44:38.617Z,1.15
2023-05-17T13:47:06.407Z,0.82
2023-05-17T13:49:33.291Z,0.60
2023-05-17T13:52:00.833Z,1.73
2023-05-17T13:54:27.893Z,0.45
2023-05-17T13:56:57.789Z,1.30
2023-05-17T13:59:24.701Z,0.40
2023-05-17T14:01:51.726Z,1.15
2023-05-17T14:04:20.003Z,0.70
2023-05-17T14:06:48.936Z,0.85
2023-05-17T14:09:16.334Z,0.30
2023-05-17T14:11:43.260Z,1.10
2023-05-17T14:14:10.215Z,0.47
2023-05-17T14:16:37.747Z,0.47
2023-05-17T14:19:05.155Z,1.58
2023-05-17T14:21:32.352Z,0.93
2023-05-17T14:23:59.317Z,0.40
2023-05-17T14:26:26.887Z,0.90
2023-05-17T14:28:53.993Z,1.05
2023-05-17T14:31:21.223Z,0.50
2023-05-17T14:33:48.421Z,0.65
2023-05-17T14:36:15.761Z,0.95
2023-05-17T14:38:42.714Z,1.15
2023-05-17T14:41:09.551Z,0.82
2023-05-17T14:43:36.758Z,0.55
2023-05-17T14:46:04.464Z,1.48
2023-05-17T14:48:32.035Z,0.50
2023-05-17T14:50:59.011Z,0.52
2023-05-17T14:53:29.547Z,0.57
2023-05-17T14:55:59.454Z,0.43
2023-05-17T14:58:26.498Z,0.60
2023-05-17T15:01:05.270Z,0.75
2023-05-17T15:03:33.612Z,0.40
2023-05-17T15:06:02.864Z,0.50
2023-05-17T15:08:32.099Z,0.68
2023-05-17T15:10:58.975Z,1.30
2023-05-17T15:13:26.577Z,3.35
2023-05-17T15:15:53.984Z,1.38
2023-05-17T15:18:21.143Z,0.90
2023-05-17T15:20:48.092Z,0.60
2023-05-17T15:23:14.985Z,0.82
2023-05-17T15:25:42.197Z,1.48
2023-05-17T15:28:09.061Z,1.08
2023-05-17T15:30:35.831Z,0.73
2023-05-17T15:33:03.015Z,1.33
2023-05-17T15:35:30.202Z,1.42
2023-05-17T15:37:59.610Z,0.57
2023-05-17T15:40:26.406Z,1.25
2023-05-17T15:42:53.435Z,0.98
2023-05-17T15:45:23.363Z,2.33
2023-05-17T15:47:50.683Z,1.67
2023-05-17T15:50:17.713Z,1.75
2023-05-17T15:52:44.601Z,1.15
2023-05-17T15:55:11.764Z,1.83
2023-05-17T15:57:38.798Z,2.28
2023-05-17T16:00:06.445Z,2.08
2023-05-17T16:02:33.914Z,2.25
2023-05-17T16:05:02.800Z,2.95
2023-05-17T16:07:31.428Z,4.38
2023-05-17T16:09:58.219Z,5.38
2023-05-17T16:12:25.193Z,7.03
2023-05-17T16:14:52.127Z,3.95
2023-05-17T16:17:18.944Z,0.80
2023-05-17T16:19:45.795Z,1.65
2023-05-17T16:22:13.408Z,1.48
2023-05-17T16:24:40.717Z,1.33
2023-05-17T16:27:08.230Z,0.98
2023-05-17T16:29:40.218Z,1.08
2023-05-17T16:32:08.427Z,1.00
2023-05-17T16:34:35.859Z,2.58
2023-05-17T16:37:04.856Z,0.95
2023-05-17T16:39:33.089Z,1.30
2023-05-17T16:42:00.198Z,0.30
2023-05-17T16:44:27.023Z,0.75
2023-05-17T16:46:53.902Z,0.70
2023-05-17T16:49:20.932Z,0.10
2023-05-17T16:51:50.018Z,0.50
2023-05-17T16:54:16.874Z,0.47
2023-05-17T16:56:43.982Z,0.80
2023-05-17T16:59:11.359Z,0.22
2023-05-17T17:01:38.355Z,6.63
2023-05-17T17:04:05.234Z,5.00
2023-05-17T17:06:33.872Z,2.63
2023-05-17T17:09:01.840Z,0.70
2023-05-17T17:11:28.715Z,0.22
2023-05-17T17:13:55.518Z,0.52
2023-05-17T17:16:22.918Z,0.40
2023-05-17T17:18:50.156Z,1.70
2023-05-17T17:21:17.510Z,1.15
2023-05-17T17:23:44.639Z,0.40
2023-05-17T17:26:11.733Z,1.05
2023-05-17T17:28:38.900Z,1.30
2023-05-17T17:31:06.775Z,0.93
2023-05-17T17:33:34.484Z,0.82
2023-05-17T17:36:02.736Z,1.08
2023-05-17T17:38:29.519Z,0.28
2023-05-17T17:40:56.353Z,0.10
2023-05-17T17:43:23.230Z,0.52
2023-05-17T17:45:50.121Z,1.83
2023-05-17T17:48:16.968Z,0.82
2023-05-17T17:50:43.905Z,1.35
2023-05-17T17:53:10.860Z,0.82
2023-05-17T17:55:37.690Z,3.22
2023-05-17T17:58:04.589Z,0.68
2023-05-17T18:00:31.738Z,0.50
2023-05-17T18:02:58.858Z,1.13
2023-05-17T18:05:26.255Z,1.00
2023-05-17T18:07:53.435Z,0.28
2023-05-17T18:10:20.522Z,0.60
2023-05-17T18:12:48.673Z,0.40
2023-05-17T18:15:17.170Z,0.73
2023-05-17T18:17:44.023Z,0.65
2023-05-17T18:20:11.368Z,0.90
2023-05-17T18:22:38.146Z,1.50
2023-05-17T18:25:05.563Z,3.17
2023-05-17T18:27:32.618Z,2.38
2023-05-17T18:29:59.545Z,1.58
2023-05-17T18:32:26.720Z,1.48
2023-05-17T18:34:55.132Z,2.35
2023-05-17T18:37:22.107Z,0.88
2023-05-17T18:39:49.120Z,1.20
2023-05-17T18:42:16.069Z,1.17
2023-05-17T18:44:42.850Z,1.65
2023-05-17T18:47:10.653Z,1.58
2023-05-17T18:49:40.510Z,2.70
2023-05-17T18:52:07.608Z,2.15
2023-05-17T18:54:34.488Z,2.17
2023-05-17T18:57:01.446Z,1.50
2023-05-17T18:59:28.335Z,2.08
2023-05-17T19:01:55.446Z,2.58
2023-05-17T19:04:22.830Z,2.45
2023-05-17T19:06:50.076Z,1.90
2023-05-17T19:09:17.014Z,2.92
2023-05-17T19:11:44.398Z,2.97
2023-05-17T19:14:13.515Z,2.55
2023-05-17T19:16:41.875Z,2.80
2023-05-17T19:19:10.066Z,2.05
2023-05-17T19:21:37.499Z,2.17
2023-05-17T19:24:05.733Z,3.25
2023-05-17T19:26:32.883Z,4.03
2023-05-17T19:28:59.976Z,2.15
2023-05-17T19:31:27.871Z,1.50
2023-05-17T19:33:54.922Z,1.80
2023-05-17T19:36:22.195Z,3.00
2023-05-17T19:38:51.856Z,1.75
2023-05-17T19:41:20.170Z,2.15
2023-05-17T19:43:47.336Z,5.82
2023-05-17T19:46:14.500Z,2.20
2023-05-17T19:48:41.860Z,2.85
2023-05-17T19:51:08.906Z,1.63
2023-05-17T19:53:51.001Z,2.40
2023-05-17T19:56:20.109Z,4.18
2023-05-17T19:58:47.217Z,5.03
2023-05-17T20:01:15.309Z,3.10
2023-05-17T20:03:44.174Z,2.15
2023-05-17T20:06:14.499Z,3.20
2023-05-17T20:08:43.460Z,3.38
2023-05-17T20:11:12.174Z,3.25
2023-05-17T20:13:42.288Z,3.65
2023-05-17T20:16:13.489Z,3.83
2023-05-17T20:18:46.524Z,4.65
2023-05-17T20:21:25.376Z,3.90
2023-05-17T20:23:57.003Z,3.75
2023-05-17T20:26:27.215Z,5.45
2023-05-17T20:28:57.335Z,4.88
2023-05-17T20:31:24.424Z,4.25
2023-05-17T20:33:51.779Z,4.15
2023-05-17T20:36:19.365Z,3.05
2023-05-17T20:38:46.612Z,3.80
2023-05-17T20:41:21.913Z,4.97
2023-05-17T20:43:52.838Z,4.38
2023-05-17T20:46:20.310Z,2.58
2023-05-17T20:48:48.563Z,2.63
2023-05-17T20:51:18.181Z,3.60
2023-05-17T20:53:46.717Z,3.90
2023-05-17T20:56:19.468Z,3.22
2023-05-17T20:58:48.838Z,2.55
2023-05-17T21:01:15.975Z,3.30
2023-05-17T21:03:46.083Z,2.40
2023-05-17T21:06:13.558Z,3.17
2023-05-17T21:08:42.123Z,2.15
2023-05-17T21:11:09.206Z,3.85
2023-05-17T21:13:36.263Z,2.90
2023-05-17T21:16:03.264Z,3.20
2023-05-17T21:18:30.047Z,3.83
2023-05-17T21:20:56.892Z,4.38
2023-05-17T21:23:23.741Z,3.85
2023-05-17T21:25:50.945Z,5.20
2023-05-17T21:28:18.870Z,4.22
2023-05-17T21:30:45.753Z,3.75
2023-05-17T21:33:12.564Z,4.25
2023-05-17T21:35:39.597Z,3.88
2023-05-17T21:38:06.859Z,4.60
2023-05-17T21:40:33.867Z,3.95
2023-05-17T21:43:01.150Z,3.50
2023-05-17T21:45:28.036Z,4.20
2023-05-17T21:47:55.105Z,4.85
2023-05-17T21:50:22.965Z,4.20
2023-05-17T21:52:49.987Z,5.93
2023-05-17T21:55:16.852Z,4.20
2023-05-17T21:57:43.610Z,2.20
2023-05-17T22:00:15.530Z,2.55
2023-05-17T22:02:45.985Z,2.40
2023-05-17T22:05:13.618Z,2.85
2023-05-17T22:07:40.731Z,2.03
2023-05-17T22:10:09.511Z,2.80
2023-05-17T22:12:38.256Z,6.57
2023-05-17T22:15:05.831Z,9.18
2023-05-17T22:17:43.130Z,8.40
2023-05-17T22:20:17.912Z,7.18
2023-05-17T22:22:44.850Z,6.28
2023-05-17T22:25:11.686Z,8.52
2023-05-17T22:27:41.740Z,7.55
2023-05-17T22:30:08.985Z,7.75
2023-05-17T22:32:37.483Z,4.40
2023-05-17T22:35:04.776Z,4.03
2023-05-17T22:37:33.016Z,4.28
2023-05-17T22:39:59.874Z,3.35
2023-05-17T22:42:26.900Z,4.03
2023-05-17T22:44:53.789Z,4.10
2023-05-17T22:47:23.055Z,2.95
2023-05-17T22:49:52.560Z,3.05
2023-05-17T22:52:19.982Z,3.40
2023-05-17T22:54:46.917Z,3.00
2023-05-17T22:57:14.444Z,1.83
2023-05-17T22:59:43.980Z,2.22
2023-05-17T23:02:14.597Z,2.20
2023-05-17T23:04:41.472Z,2.47
2023-05-17T23:07:10.933Z,2.78
2023-05-17T23:09:43.403Z,3.65
2023-05-17T23:12:13.948Z,2.42
2023-05-17T23:17:08.698Z,1.58
2023-05-17T23:19:35.627Z,2.70
2023-05-17T23:22:06.316Z,2.75
2023-05-17T23:24:38.984Z,1.85
2023-05-17T23:27:10.292Z,1.90
2023-05-17T23:29:37.324Z,1.98
2023-05-17T23:32:04.199Z,1.88
2023-05-17T23:34:31.401Z,3.70
2023-05-17T23:36:58.153Z,1.42
2023-05-17T23:39:24.942Z,2.45
2023-05-17T23:41:52.668Z,1.33
2023-05-17T23:44:19.542Z,1.75
2023-05-17T23:46:46.408Z,1.58
2023-05-17T23:49:14.793Z,3.00
2023-05-17T23:51:41.558Z,2.08
2023-05-17T23:54:08.574Z,1.33
2023-05-17T23:56:35.499Z,1.67
2023-05-17T23:59:02.492Z,2.78
